createdAt,value
2022-08-07T00:02:40.649Z,6.22
2022-08-07T00:05:05.561Z,6.15
2022-08-07T00:07:40.552Z,5.45
2022-08-07T00:10:27.249Z,4.72
2022-08-07T00:13:02.038Z,6.25
2022-08-07T00:15:36.029Z,5.43
2022-08-07T00:18:06.330Z,6.00
2022-08-07T00:20:35.520Z,5.75
2022-08-07T00:23:03.643Z,5.18
2022-08-07T00:25:41.425Z,6.32
2022-08-07T00:28:10.650Z,9.75
2022-08-07T00:30:38.666Z,5.80
2022-08-07T00:33:08.491Z,6.10
2022-08-07T00:35:36.749Z,6.60
2022-08-07T00:38:04.692Z,5.95
2022-08-07T00:40:39.775Z,6.03
2022-08-07T00:43:58.603Z,5.78
2022-08-07T00:46:04.671Z,5.50
2022-08-07T00:48:35.709Z,6.28
2022-08-07T00:51:09.867Z,6.05
2022-08-07T00:53:38.888Z,7.32
2022-08-07T00:56:21.120Z,6.15
2022-08-07T00:58:51.740Z,6.85
2022-08-07T01:01:19.889Z,5.75
2022-08-07T01:03:55.675Z,6.60
2022-08-07T01:06:28.571Z,6.15
2022-08-07T01:09:01.114Z,6.50
2022-08-07T01:12:10.299Z,6.32
2022-08-07T01:14:32.709Z,6.32
2022-08-07T01:17:07.203Z,7.07
2022-08-07T01:19:35.159Z,6.20
2022-08-07T01:22:08.667Z,6.10
2022-08-07T01:24:39.562Z,6.03
2022-08-07T01:27:19.477Z,6.28
2022-08-07T01:29:47.542Z,7.15
2022-08-07T01:32:18.593Z,6.25
2022-08-07T01:34:47.442Z,6.40
2022-08-07T01:37:18.908Z,5.72
2022-08-07T01:39:49.939Z,6.47
2022-08-07T01:42:39.565Z,7.10
2022-08-07T01:45:10.094Z,7.45
2022-08-07T01:48:19.897Z,8.50
2022-08-07T01:50:36.483Z,6.07
2022-08-07T01:53:08.898Z,6.30
2022-08-07T01:55:43.778Z,7.47
2022-08-07T01:58:28.953Z,6.40
2022-08-07T02:01:09.476Z,5.40
2022-08-07T02:03:48.940Z,5.30
2022-08-07T02:06:31.275Z,6.43
2022-08-07T02:09:01.149Z,5.87
2022-08-07T02:12:02.941Z,5.53
2022-08-07T02:14:40.452Z,6.70
2022-08-07T02:17:12.501Z,6.03
2022-08-07T02:20:06.880Z,6.57
2022-08-07T02:22:38.292Z,6.00
2022-08-07T02:25:13.795Z,5.97
2022-08-07T02:27:52.098Z,5.53
2022-08-07T02:30:23.318Z,6.78
2022-08-07T02:33:07.249Z,6.43
2022-08-07T02:36:28.441Z,6.68
2022-08-07T02:38:32.751Z,6.45
2022-08-07T02:41:03.847Z,5.87
2022-08-07T02:43:31.957Z,6.10
2022-08-07T02:46:05.673Z,5.45
2022-08-07T02:48:34.391Z,5.75
2022-08-07T02:51:14.421Z,7.30
2022-08-07T02:53:58.260Z,5.87
2022-08-07T02:56:31.393Z,6.22
2022-08-07T02:58:59.414Z,5.68
2022-08-07T03:01:36.142Z,7.43
2022-08-07T03:04:07.562Z,7.25
2022-08-07T03:06:46.009Z,6.90
2022-08-07T03:09:42.164Z,6.50
2022-08-07T03:12:11.593Z,7.18
2022-08-07T03:14:52.241Z,7.78
2022-08-07T03:17:22.227Z,8.73
2022-08-07T03:19:57.995Z,6.22
2022-08-07T03:22:29.573Z,6.68
2022-08-07T03:25:00.935Z,8.52
2022-08-07T03:27:59.767Z,6.78
2022-08-07T03:30:19.825Z,8.50
2022-08-07T03:32:58.564Z,6.00
2022-08-07T03:35:38.047Z,8.02
2022-08-07T03:38:21.048Z,6.37
2022-08-07T03:41:01.528Z,7.80
2022-08-07T03:43:33.315Z,7.15
2022-08-07T03:46:10.517Z,6.43
2022-08-07T03:49:02.421Z,7.37
2022-08-07T03:51:47.882Z,6.35
2022-08-07T03:54:35.980Z,6.90
2022-08-07T03:57:10.023Z,6.40
2022-08-07T04:00:02.577Z,7.15
2022-08-07T04:02:34.181Z,6.43
2022-08-07T04:05:09.116Z,7.07
2022-08-07T04:07:42.829Z,7.22
2022-08-07T04:10:19.017Z,6.28
2022-08-07T04:12:50.644Z,6.80
2022-08-07T04:15:18.462Z,7.18
2022-08-07T04:18:58.579Z,7.25
2022-08-07T04:20:35.268Z,7.03
2022-08-07T04:23:06.623Z,7.65
2022-08-07T04:25:40.960Z,6.85
2022-08-07T04:28:15.855Z,7.25
2022-08-07T04:30:57.309Z,7.10
2022-08-07T04:33:26.892Z,6.72
2022-08-07T04:35:57.946Z,7.60
2022-08-07T04:38:26.319Z,6.80
2022-08-07T04:40:56.646Z,7.70
2022-08-07T04:44:09.676Z,7.30
2022-08-07T04:46:35.908Z,5.82
2022-08-07T04:49:37.838Z,6.95
2022-08-07T04:52:12.440Z,6.25
2022-08-07T04:55:15.013Z,7.05
2022-08-07T04:58:23.958Z,8.30
2022-08-07T05:00:47.266Z,7.07
2022-08-07T05:04:06.910Z,7.37
2022-08-07T05:06:51.657Z,7.37
2022-08-07T05:09:46.017Z,6.78
2022-08-07T05:12:26.942Z,8.63
2022-08-07T05:15:03.334Z,6.68
2022-08-07T05:18:00.648Z,8.23
2022-08-07T05:20:25.868Z,7.87
2022-08-07T05:22:55.753Z,6.40
2022-08-07T05:25:54.447Z,6.35
2022-08-07T05:28:22.632Z,6.22
2022-08-07T05:30:52.272Z,6.07
2022-08-07T05:33:20.789Z,5.93
2022-08-07T05:35:52.474Z,6.10
2022-08-07T05:38:59.412Z,6.30
2022-08-07T05:41:14.365Z,5.70
2022-08-07T05:44:01.128Z,5.62
2022-08-07T05:46:32.271Z,6.15
2022-08-07T05:49:00.036Z,6.12
2022-08-07T05:51:31.686Z,5.87
2022-08-07T05:54:09.726Z,6.20
2022-08-07T05:56:51.437Z,7.18
2022-08-07T05:59:20.791Z,5.40
2022-08-07T06:01:48.783Z,5.35
2022-08-07T06:04:19.462Z,7.12
2022-08-07T06:06:47.843Z,4.90
2022-08-07T06:10:03.721Z,4.25
2022-08-07T06:12:12.421Z,4.80
2022-08-07T06:14:49.649Z,6.25
2022-08-07T06:17:18.384Z,5.30
2022-08-07T06:19:57.880Z,5.40
2022-08-07T06:22:38.522Z,4.85
2022-08-07T06:25:10.010Z,5.65
2022-08-07T06:28:00.412Z,7.20
2022-08-07T06:30:35.617Z,4.87
2022-08-07T06:33:15.612Z,4.53
2022-08-07T06:36:13.004Z,5.05
2022-08-07T06:38:36.975Z,4.65
2022-08-07T06:41:13.022Z,5.78
2022-08-07T06:43:46.162Z,4.05
2022-08-07T06:46:20.382Z,4.55
2022-08-07T06:49:04.432Z,4.90
2022-08-07T06:51:33.695Z,4.43
2022-08-07T06:55:29.468Z,4.22
2022-08-07T06:56:56.205Z,5.97
2022-08-07T07:00:13.060Z,3.95
2022-08-07T07:02:48.963Z,4.80
2022-08-07T07:05:13.040Z,5.68
2022-08-07T07:07:59.271Z,3.70
2022-08-07T07:10:34.421Z,5.03
2022-08-07T07:13:14.383Z,6.10
2022-08-07T07:15:56.510Z,5.65
2022-08-07T07:18:47.736Z,3.92
2022-08-07T07:21:27.177Z,3.80
2022-08-07T07:24:12.652Z,4.50
2022-08-07T07:26:40.795Z,4.78
2022-08-07T07:29:57.196Z,3.65
2022-08-07T07:32:09.781Z,3.15
2022-08-07T07:34:40.389Z,4.00
2022-08-07T07:37:21.635Z,3.83
2022-08-07T07:40:02.970Z,3.60
2022-08-07T07:42:38.239Z,3.45
2022-08-07T07:45:07.269Z,3.97
2022-08-07T07:47:51.935Z,3.35
2022-08-07T07:50:34.298Z,3.92
2022-08-07T07:53:20.084Z,3.45
2022-08-07T07:55:57.840Z,3.53
2022-08-07T07:58:30.927Z,4.10
2022-08-07T08:02:01.998Z,4.45
2022-08-07T08:04:10.640Z,3.50
2022-08-07T08:06:48.132Z,2.95
2022-08-07T08:09:23.342Z,3.35
2022-08-07T08:12:02.102Z,3.53
2022-08-07T08:14:36.713Z,3.72
2022-08-07T08:17:55.361Z,3.15
2022-08-07T08:20:19.579Z,3.17
2022-08-07T08:23:15.770Z,3.25
2022-08-07T08:26:06.701Z,3.30
2022-08-07T08:28:44.821Z,2.90
2022-08-07T08:31:22.933Z,2.60
2022-08-07T08:34:03.536Z,3.62
2022-08-07T08:36:32.834Z,3.42
2022-08-07T08:39:07.699Z,3.15
2022-08-07T08:41:58.367Z,3.87
2022-08-07T08:44:44.556Z,3.03
2022-08-07T08:47:47.356Z,3.10
2022-08-07T08:50:39.141Z,1.98
2022-08-07T08:53:16.583Z,2.28
2022-08-07T08:55:58.915Z,2.78
2022-08-07T08:58:43.245Z,3.12
2022-08-07T09:01:21.714Z,3.37
2022-08-07T09:04:04.094Z,2.20
2022-08-07T09:07:01.862Z,2.55
2022-08-07T09:10:03.504Z,2.50
2022-08-07T09:12:37.266Z,3.85
2022-08-07T09:16:24.255Z,4.87
2022-08-07T09:18:53.186Z,2.58
2022-08-07T09:22:10.354Z,3.03
2022-08-07T09:24:56.161Z,2.12
2022-08-07T09:28:00.998Z,2.58
2022-08-07T09:30:57.136Z,2.60
2022-08-07T09:33:56.720Z,2.30
2022-08-07T09:36:49.986Z,1.80
2022-08-07T09:39:56.350Z,2.65
2022-08-07T09:42:41.230Z,2.00
2022-08-07T09:47:25.461Z,2.58
2022-08-07T09:50:04.207Z,2.10
2022-08-07T09:52:34.963Z,2.03
2022-08-07T09:55:28.935Z,2.28
2022-08-07T09:58:16.023Z,2.22
2022-08-07T10:00:55.881Z,1.95
2022-08-07T10:04:03.782Z,3.25
2022-08-07T10:06:49.224Z,2.60
2022-08-07T10:10:01.062Z,2.22
2022-08-07T10:12:54.777Z,2.37
2022-08-07T10:15:51.536Z,2.28
2022-08-07T10:18:39.078Z,2.08
2022-08-07T10:21:50.489Z,2.55
2022-08-07T10:24:33.383Z,2.17
2022-08-07T10:27:24.124Z,2.22
2022-08-07T10:30:12.143Z,2.95
2022-08-07T10:33:01.743Z,1.85
2022-08-07T10:36:11.033Z,2.10
2022-08-07T10:39:06.624Z,2.00
2022-08-07T10:41:51.230Z,2.20
2022-08-07T10:44:38.736Z,1.73
2022-08-07T10:47:27.052Z,1.75
2022-08-07T10:50:26.073Z,1.62
2022-08-07T10:53:08.351Z,1.95
2022-08-07T10:55:53.312Z,2.53
2022-08-07T10:58:40.598Z,1.50
2022-08-07T11:01:51.662Z,2.97
2022-08-07T11:05:10.575Z,1.70
2022-08-07T11:07:59.236Z,1.60
2022-08-07T11:10:40.859Z,2.62
2022-08-07T11:14:42.345Z,1.95
2022-08-07T11:16:32.925Z,1.50
2022-08-07T11:19:44.174Z,1.73
2022-08-07T11:22:34.032Z,1.45
2022-08-07T11:25:42.203Z,1.52
2022-08-07T11:28:26.935Z,2.08
2022-08-07T11:31:23.855Z,1.62
2022-08-07T11:34:05.156Z,1.62
2022-08-07T11:37:15.591Z,1.90
2022-08-07T11:40:19.202Z,1.50
2022-08-07T11:43:41.274Z,3.20
2022-08-07T11:46:42.089Z,3.33
2022-08-07T11:50:11.428Z,4.55
2022-08-07T11:52:49.229Z,1.70
2022-08-07T11:56:26.048Z,3.05
2022-08-07T12:00:08.844Z,3.47
2022-08-07T12:02:20.782Z,2.95
2022-08-07T12:05:28.860Z,2.65
2022-08-07T12:08:34.664Z,2.37
2022-08-07T12:11:21.553Z,1.45
2022-08-07T12:13:54.398Z,1.55
2022-08-07T12:16:31.015Z,3.42
2022-08-07T12:19:23.608Z,2.05
2022-08-07T12:22:38.819Z,1.52
2022-08-07T12:26:21.687Z,1.73
2022-08-07T12:28:30.946Z,2.47
2022-08-07T12:31:09.376Z,1.37
2022-08-07T12:34:00.652Z,1.55
2022-08-07T12:36:33.698Z,1.98
2022-08-07T12:39:41.168Z,1.60
2022-08-07T12:42:13.161Z,1.52
2022-08-07T12:44:47.632Z,3.95
2022-08-07T12:47:58.239Z,2.65
2022-08-07T12:50:51.817Z,1.85
2022-08-07T12:54:23.887Z,1.58
2022-08-07T12:56:43.427Z,1.92
2022-08-07T12:59:33.219Z,2.45
2022-08-07T13:02:16.600Z,1.62
2022-08-07T13:06:02.071Z,2.58
2022-08-07T13:08:18.834Z,1.65
2022-08-07T13:11:00.970Z,2.40
2022-08-07T13:13:48.735Z,1.40
2022-08-07T13:17:05.205Z,3.33
2022-08-07T13:20:14.495Z,2.00
2022-08-07T13:22:57.044Z,2.00
2022-08-07T13:25:50.797Z,1.77
2022-08-07T13:28:56.606Z,2.72
2022-08-07T13:31:46.253Z,1.50
2022-08-07T13:34:53.283Z,2.35
2022-08-07T13:37:33.645Z,1.55
2022-08-07T13:40:36.026Z,2.53
2022-08-07T13:43:16.552Z,1.60
2022-08-07T13:46:12.830Z,1.83
2022-08-07T13:48:38.895Z,2.62
2022-08-07T13:51:27.721Z,2.67
2022-08-07T13:54:07.079Z,3.30
2022-08-07T13:56:41.345Z,2.17
2022-08-07T13:59:27.821Z,1.70
2022-08-07T14:02:39.501Z,2.08
2022-08-07T14:05:19.661Z,1.55
2022-08-07T14:07:59.970Z,1.75
2022-08-07T14:10:41.976Z,1.70
2022-08-07T14:13:19.815Z,3.10
2022-08-07T14:15:58.925Z,2.33
2022-08-07T14:18:37.270Z,1.75
2022-08-07T14:21:11.639Z,1.77
2022-08-07T14:24:06.613Z,2.03
2022-08-07T14:26:50.591Z,1.92
2022-08-07T14:30:05.269Z,1.55
2022-08-07T14:32:37.590Z,1.37
2022-08-07T14:35:07.090Z,2.50
2022-08-07T14:38:03.243Z,1.67
2022-08-07T14:40:40.277Z,2.22
2022-08-07T14:43:59.200Z,1.75
2022-08-07T14:46:04.264Z,2.87
2022-08-07T14:48:34.006Z,1.60
2022-08-07T14:51:06.737Z,1.77
2022-08-07T14:54:05.948Z,2.05
2022-08-07T14:56:41.481Z,1.50
2022-08-07T15:00:06.220Z,2.30
2022-08-07T15:05:04.919Z,1.50
2022-08-07T15:07:54.742Z,2.60
2022-08-07T15:10:30.056Z,1.80
2022-08-07T15:13:01.211Z,1.55
2022-08-07T15:15:53.403Z,1.60
2022-08-07T15:18:40.106Z,2.65
2022-08-07T15:21:44.288Z,1.90
2022-08-07T15:25:15.013Z,1.40
2022-08-07T15:27:16.623Z,1.45
2022-08-07T15:30:08.530Z,2.72
2022-08-07T15:36:02.636Z,2.17
2022-08-07T15:38:51.268Z,2.50
2022-08-07T15:41:24.446Z,1.33
2022-08-07T15:44:16.186Z,1.37
2022-08-07T15:47:16.819Z,1.95
2022-08-07T15:50:04.036Z,3.00
2022-08-07T15:52:52.456Z,1.87
2022-08-07T15:55:53.545Z,2.15
2022-08-07T15:58:21.053Z,2.50
2022-08-07T16:00:52.079Z,1.62
2022-08-07T16:03:46.349Z,1.70
2022-08-07T16:06:18.324Z,1.73
2022-08-07T16:08:52.950Z,1.60
2022-08-07T16:11:41.686Z,2.65
2022-08-07T16:14:49.511Z,1.48
2022-08-07T16:18:02.552Z,1.73
2022-08-07T16:21:44.106Z,2.30
2022-08-07T16:24:35.106Z,2.67
2022-08-07T16:27:20.971Z,2.00
2022-08-07T16:30:11.802Z,2.17
2022-08-07T16:34:02.860Z,1.60
2022-08-07T16:36:20.791Z,1.60
2022-08-07T16:39:10.224Z,1.85
2022-08-07T16:42:27.691Z,1.70
2022-08-07T16:46:10.911Z,2.33
2022-08-07T16:49:04.026Z,2.22
2022-08-07T16:51:57.527Z,1.70
2022-08-07T16:54:54.883Z,2.00
2022-08-07T16:58:02.984Z,2.08
2022-08-07T17:00:48.737Z,3.08
2022-08-07T17:03:59.358Z,1.77
2022-08-07T17:07:02.904Z,2.62
2022-08-07T17:10:08.344Z,2.03
2022-08-07T17:12:53.035Z,3.58
2022-08-07T17:15:44.734Z,1.95
2022-08-07T17:18:40.072Z,2.15
2022-08-07T17:21:22.804Z,2.47
2022-08-07T17:24:14.360Z,1.80
2022-08-07T17:27:32.659Z,2.33
2022-08-07T17:30:15.974Z,2.50
2022-08-07T17:34:09.854Z,2.97
2022-08-07T17:36:28.071Z,2.20
2022-08-07T17:39:15.467Z,1.60
2022-08-07T17:42:04.479Z,1.92
2022-08-07T17:44:50.263Z,2.37
2022-08-07T17:47:38.280Z,2.15
2022-08-07T17:50:30.438Z,2.47
2022-08-07T17:53:55.720Z,2.45
2022-08-07T17:56:28.673Z,2.17
2022-08-07T17:59:08.991Z,2.05
2022-08-07T18:01:52.246Z,2.25
2022-08-07T18:04:31.072Z,2.83
2022-08-07T18:07:20.924Z,2.05
2022-08-07T18:10:32.181Z,1.95
2022-08-07T18:13:15.696Z,3.17
2022-08-07T18:16:32.822Z,5.10
2022-08-07T18:21:04.487Z,3.55
2022-08-07T18:22:15.074Z,2.50
2022-08-07T18:24:53.920Z,2.28
2022-08-07T18:27:59.249Z,2.12
2022-08-07T18:31:12.293Z,2.40
2022-08-07T18:34:35.893Z,2.90
2022-08-07T18:38:56.909Z,3.58
2022-08-07T18:40:42.292Z,2.58
2022-08-07T18:43:42.728Z,2.78
2022-08-07T18:47:05.476Z,3.85
2022-08-07T18:50:32.508Z,5.12
2022-08-07T18:52:53.977Z,2.42
2022-08-07T18:55:41.946Z,2.35
2022-08-07T18:59:01.958Z,2.28
2022-08-07T19:02:17.546Z,2.30
2022-08-07T19:04:57.405Z,2.85
2022-08-07T19:07:57.247Z,3.22
2022-08-07T19:10:41.123Z,2.33
2022-08-07T19:13:41.533Z,2.60
2022-08-07T19:16:43.200Z,3.15
2022-08-07T19:19:20.317Z,2.05
2022-08-07T19:22:31.052Z,2.33
2022-08-07T19:25:05.561Z,2.40
2022-08-07T19:28:56.539Z,3.60
2022-08-07T19:30:56.577Z,2.37
2022-08-07T19:33:17.241Z,2.72
2022-08-07T19:35:57.845Z,2.15
2022-08-07T19:38:30.496Z,2.78
2022-08-07T19:41:02.227Z,2.25
2022-08-07T19:43:49.562Z,3.65
2022-08-07T19:46:26.495Z,2.85
2022-08-07T19:49:07.611Z,3.70
2022-08-07T19:51:51.416Z,3.10
2022-08-07T19:54:33.036Z,3.17
2022-08-07T19:58:00.787Z,4.22
2022-08-07T20:00:10.373Z,5.80
2022-08-07T20:02:51.530Z,4.05
2022-08-07T20:05:29.834Z,4.57
2022-08-07T20:08:02.557Z,3.37
2022-08-07T20:10:37.205Z,2.95
2022-08-07T20:13:27.156Z,2.87
2022-08-07T20:16:15.781Z,3.58
2022-08-07T20:19:10.656Z,2.80
2022-08-07T20:21:48.353Z,3.35
2022-08-07T20:24:42.280Z,4.10
2022-08-07T20:27:45.863Z,3.12
2022-08-07T20:30:11.742Z,2.62
2022-08-07T20:32:44.847Z,2.90
2022-08-07T20:35:26.574Z,3.70
2022-08-07T20:38:00.832Z,3.28
2022-08-07T20:40:34.918Z,2.80
2022-08-07T20:43:09.713Z,4.32
2022-08-07T20:46:29.107Z,3.15
2022-08-07T20:48:37.366Z,3.53
2022-08-07T20:51:09.571Z,2.78
2022-08-07T20:54:03.880Z,3.35
2022-08-07T20:56:46.202Z,3.65
2022-08-07T21:00:04.990Z,2.80
2022-08-07T21:02:38.248Z,4.80
2022-08-07T21:05:16.305Z,3.10
2022-08-07T21:07:52.099Z,3.22
2022-08-07T21:10:36.885Z,4.60
2022-08-07T21:13:13.791Z,2.85
2022-08-07T21:15:58.468Z,3.20
2022-08-07T21:18:34.202Z,4.95
2022-08-07T21:21:05.523Z,3.00
2022-08-07T21:24:03.063Z,3.22
2022-08-07T21:26:42.864Z,3.08
2022-08-07T21:29:23.067Z,3.55
2022-08-07T21:32:46.920Z,3.10
2022-08-07T21:35:34.528Z,3.28
2022-08-07T21:38:35.602Z,3.85
2022-08-07T21:41:11.422Z,4.57
2022-08-07T21:43:56.112Z,3.97
2022-08-07T21:46:50.349Z,3.40
2022-08-07T21:50:02.807Z,3.28
2022-08-07T21:52:55.938Z,3.42
2022-08-07T21:55:29.793Z,3.87
2022-08-07T21:58:32.113Z,4.80
2022-08-07T22:01:13.726Z,3.53
2022-08-07T22:03:49.407Z,3.97
2022-08-07T22:06:30.502Z,3.05
2022-08-07T22:09:14.019Z,2.62
2022-08-07T22:12:05.376Z,5.65
2022-08-07T22:14:38.863Z,3.30
2022-08-07T22:17:27.646Z,3.55
2022-08-07T22:20:28.667Z,3.15
2022-08-07T22:23:00.659Z,2.72
2022-08-07T22:26:00.951Z,4.80
2022-08-07T22:29:01.716Z,3.28
2022-08-07T22:31:59.408Z,2.83
2022-08-07T22:34:53.485Z,2.65
2022-08-07T22:38:03.064Z,4.80
2022-08-07T22:40:46.150Z,3.15
2022-08-07T22:43:44.608Z,2.72
2022-08-07T22:47:02.972Z,3.67
2022-08-07T22:49:51.848Z,2.90
2022-08-07T22:52:37.021Z,3.97
2022-08-07T22:55:34.686Z,2.83
2022-08-07T22:58:40.081Z,3.45
2022-08-07T23:01:41.913Z,2.95
2022-08-07T23:04:28.259Z,3.00
2022-08-07T23:07:39.798Z,2.90
2022-08-07T23:10:37.515Z,3.12
2022-08-07T23:13:18.358Z,3.47
2022-08-07T23:16:44.681Z,2.95
2022-08-07T23:19:57.934Z,2.97
2022-08-07T23:22:52.573Z,3.10
2022-08-07T23:25:31.642Z,3.10
2022-08-07T23:28:28.516Z,2.75
2022-08-07T23:31:42.739Z,3.42
2022-08-07T23:34:37.442Z,7.82
2022-08-07T23:37:35.506Z,4.05
2022-08-07T23:40:29.846Z,2.95
2022-08-07T23:43:16.485Z,2.95
2022-08-07T23:46:19.911Z,2.95
2022-08-07T23:49:19.283Z,3.30
2022-08-07T23:52:59.710Z,2.60
2022-08-07T23:55:04.810Z,3.08
2022-08-07T23:57:50.499Z,3.75
